sensor_id;sensor_type;location;lat;lon;timestamp;P1;durP1;ratioP1;P2;durP2;ratioP2
68872;SDS011;55907;50.806;12.882;2023-03-02T00:00:44;27.4;;;17.0;;
68872;SDS011;55907;50.806;12.882;2023-03-02T00:03:46;28.5;;;16.5;;
68872;SDS011;55907;50.806;12.882;2023-03-02T00:09:49;28.1;;;16.7;;
68872;SDS011;55907;50.806;12.882;2023-03-02T00:12:50;28.2;;;16.8;;
68872;SDS011;55907;50.806;12.882;2023-03-02T00:15:52;28.6;;;17.2;;
68872;SDS011;55907;50.806;12.882;2023-03-02T00:18:54;26.6;;;16.9;;
68872;SDS011;55907;50.806;12.882;2023-03-02T00:21:55;27.8;;;17.3;;
68872;SDS011;55907;50.806;12.882;2023-03-02T00:24:57;29.4;;;16.9;;
68872;SDS011;55907;50.806;12.882;2023-03-02T00:27:59;27.3;;;17.0;;
68872;SDS011;55907;50.806;12.882;2023-03-02T00:31:02;27.0;;;16.8;;
68872;SDS011;55907;50.806;12.882;2023-03-02T00:34:02;25.5;;;16.0;;
68872;SDS011;55907;50.806;12.882;2023-03-02T00:37:03;25.6;;;15.9;;
68872;SDS011;55907;50.806;12.882;2023-03-02T00:40:06;27.2;;;15.5;;
68872;SDS011;55907;50.806;12.882;2023-03-02T00:43:07;23.9;;;15.1;;
68872;SDS011;55907;50.806;12.882;2023-03-02T00:46:09;24.1;;;15.4;;
68872;SDS011;55907;50.806;12.882;2023-03-02T00:49:11;28.2;;;17.3;;
68872;SDS011;55907;50.806;12.882;2023-03-02T00:52:12;26.0;;;16.0;;
68872;SDS011;55907;50.806;12.882;2023-03-02T00:55:13;26.8;;;16.8;;
68872;SDS011;55907;50.806;12.882;2023-03-02T00:58:15;26.2;;;16.1;;
68872;SDS011;55907;50.806;12.882;2023-03-02T01:01:17;25.4;;;15.6;;
68872;SDS011;55907;50.806;12.882;2023-03-02T01:04:18;27.3;;;16.7;;
68872;SDS011;55907;50.806;12.882;2023-03-02T01:07:20;25.1;;;15.5;;
68872;SDS011;55907;50.806;12.882;2023-03-02T01:10:21;25.4;;;15.6;;
68872;SDS011;55907;50.806;12.882;2023-03-02T01:13:23;28.4;;;17.2;;
68872;SDS011;55907;50.806;12.882;2023-03-02T01:16:25;26.3;;;15.9;;
68872;SDS011;55907;50.806;12.882;2023-03-02T01:19:26;26.6;;;15.9;;
68872;SDS011;55907;50.806;12.882;2023-03-02T01:22:28;25.8;;;16.0;;
68872;SDS011;55907;50.806;12.882;2023-03-02T01:25:30;27.3;;;16.1;;
68872;SDS011;55907;50.806;12.882;2023-03-02T01:28:32;25.2;;;15.7;;
68872;SDS011;55907;50.806;12.882;2023-03-02T01:31:33;27.2;;;16.1;;
68872;SDS011;55907;50.806;12.882;2023-03-02T01:34:35;28.8;;;16.5;;
68872;SDS011;55907;50.806;12.882;2023-03-02T01:37:36;27.3;;;15.7;;
68872;SDS011;55907;50.806;12.882;2023-03-02T01:40:38;27.1;;;15.9;;
68872;SDS011;55907;50.806;12.882;2023-03-02T01:43:40;27.0;;;16.1;;
68872;SDS011;55907;50.806;12.882;2023-03-02T01:46:41;26.2;;;16.2;;
68872;SDS011;55907;50.806;12.882;2023-03-02T01:49:44;27.4;;;15.7;;
68872;SDS011;55907;50.806;12.882;2023-03-02T01:52:45;25.8;;;16.0;;
68872;SDS011;55907;50.806;12.882;2023-03-02T01:55:46;27.1;;;16.0;;
68872;SDS011;55907;50.806;12.882;2023-03-02T01:58:14;unavailable;;;unavailable;;
68872;SDS011;55907;50.806;12.882;2023-03-02T01:58:19;27.1;;;16.0;;
68872;SDS011;55907;50.806;12.882;2023-03-02T01:58:49;26.0;;;15.3;;
68872;SDS011;55907;50.806;12.882;2023-03-02T01:59:38;unavailable;;;unavailable;;
68872;SDS011;55907;50.806;12.882;2023-03-02T01:59:44;26.0;;;15.3;;
68872;SDS011;55907;50.806;12.882;2023-03-02T02:01:50;27.1;;;16.1;;
68872;SDS011;55907;50.806;12.882;2023-03-02T02:02:39;unavailable;;;unavailable;;
68872;SDS011;55907;50.806;12.882;2023-03-02T02:04:51;27.5;;;16.3;;
68872;SDS011;55907;50.806;12.882;2023-03-02T02:04:59;27.5;;;16.3;;
68872;SDS011;55907;50.806;12.882;2023-03-02T02:06:22;unavailable;;;unavailable;;
68872;SDS011;55907;50.806;12.882;2023-03-02T02:06:31;27.5;;;16.3;;
68872;SDS011;55907;50.806;12.882;2023-03-02T02:07:53;27.2;;;15.5;;
68872;SDS011;55907;50.806;12.882;2023-03-02T02:09:31;unavailable;;;unavailable;;
68872;SDS011;55907;50.806;12.882;2023-03-02T02:10:54;27.0;;;17.2;;
68872;SDS011;55907;50.806;12.882;2023-03-02T02:13:57;29.5;;;17.6;;
68872;SDS011;55907;50.806;12.882;2023-03-02T02:16:58;28.0;;;16.5;;
68872;SDS011;55907;50.806;12.882;2023-03-02T02:18:49;unavailable;;;unavailable;;
68872;SDS011;55907;50.806;12.882;2023-03-02T02:18:50;28.0;;;16.5;;
68872;SDS011;55907;50.806;12.882;2023-03-02T02:20:02;27.6;;;17.1;;
68872;SDS011;55907;50.806;12.882;2023-03-02T02:23:05;28.0;;;16.9;;
68872;SDS011;55907;50.806;12.882;2023-03-02T02:26:06;27.0;;;16.5;;
68872;SDS011;55907;50.806;12.882;2023-03-02T02:29:05;30.5;;;18.4;;
68872;SDS011;55907;50.806;12.882;2023-03-02T02:32:11;27.4;;;17.4;;
68872;SDS011;55907;50.806;12.882;2023-03-02T02:35:09;28.6;;;17.0;;
68872;SDS011;55907;50.806;12.882;2023-03-02T02:38:09;27.6;;;16.9;;
68872;SDS011;55907;50.806;12.882;2023-03-02T02:41:11;29.1;;;17.1;;
68872;SDS011;55907;50.806;12.882;2023-03-02T02:44:13;27.4;;;16.6;;
68872;SDS011;55907;50.806;12.882;2023-03-02T02:47:15;27.8;;;16.7;;
68872;SDS011;55907;50.806;12.882;2023-03-02T02:50:16;27.2;;;16.5;;
68872;SDS011;55907;50.806;12.882;2023-03-02T02:53:18;27.1;;;16.2;;
68872;SDS011;55907;50.806;12.882;2023-03-02T02:56:19;26.2;;;15.4;;
68872;SDS011;55907;50.806;12.882;2023-03-02T02:59:22;27.1;;;16.3;;
68872;SDS011;55907;50.806;12.882;2023-03-02T03:02:23;28.2;;;16.1;;
68872;SDS011;55907;50.806;12.882;2023-03-02T03:05:24;27.5;;;16.3;;
68872;SDS011;55907;50.806;12.882;2023-03-02T03:11:29;25.9;;;16.3;;
68872;SDS011;55907;50.806;12.882;2023-03-02T03:14:30;26.2;;;16.0;;
68872;SDS011;55907;50.806;12.882;2023-03-02T03:17:31;28.0;;;16.7;;
68872;SDS011;55907;50.806;12.882;2023-03-02T03:20:32;26.2;;;16.1;;
68872;SDS011;55907;50.806;12.882;2023-03-02T03:23:34;28.2;;;16.8;;
68872;SDS011;55907;50.806;12.882;2023-03-02T03:26:36;29.4;;;16.3;;
68872;SDS011;55907;50.806;12.882;2023-03-02T03:29:38;27.4;;;15.7;;
68872;SDS011;55907;50.806;12.882;2023-03-02T03:32:39;28.9;;;16.8;;
68872;SDS011;55907;50.806;12.882;2023-03-02T03:35:40;28.2;;;16.7;;
68872;SDS011;55907;50.806;12.882;2023-03-02T03:38:42;29.5;;;17.1;;
68872;SDS011;55907;50.806;12.882;2023-03-02T03:41:44;29.4;;;17.8;;
68872;SDS011;55907;50.806;12.882;2023-03-02T03:44:46;31.8;;;17.2;;
68872;SDS011;55907;50.806;12.882;2023-03-02T03:47:47;29.6;;;17.6;;
68872;SDS011;55907;50.806;12.882;2023-03-02T03:50:49;28.5;;;17.1;;
68872;SDS011;55907;50.806;12.882;2023-03-02T03:53:50;29.6;;;17.4;;
68872;SDS011;55907;50.806;12.882;2023-03-02T03:56:52;29.8;;;16.5;;
68872;SDS011;55907;50.806;12.882;2023-03-02T03:59:54;28.9;;;17.4;;
68872;SDS011;55907;50.806;12.882;2023-03-02T04:02:55;28.7;;;17.2;;
68872;SDS011;55907;50.806;12.882;2023-03-02T04:05:57;31.9;;;17.6;;
68872;SDS011;55907;50.806;12.882;2023-03-02T04:12:00;28.0;;;16.7;;
68872;SDS011;55907;50.806;12.882;2023-03-02T04:15:03;28.9;;;17.0;;
68872;SDS011;55907;50.806;12.882;2023-03-02T04:21:05;28.4;;;16.1;;
68872;SDS011;55907;50.806;12.882;2023-03-02T04:24:07;28.3;;;16.9;;
68872;SDS011;55907;50.806;12.882;2023-03-02T04:27:08;27.8;;;16.2;;
68872;SDS011;55907;50.806;12.882;2023-03-02T04:30:10;27.9;;;17.0;;
68872;SDS011;55907;50.806;12.882;2023-03-02T04:33:12;28.1;;;16.7;;
68872;SDS011;55907;50.806;12.882;2023-03-02T04:36:13;25.4;;;15.7;;
68872;SDS011;55907;50.806;12.882;2023-03-02T04:39:16;27.7;;;16.6;;
68872;SDS011;55907;50.806;12.882;2023-03-02T04:42:17;29.0;;;16.7;;
68872;SDS011;55907;50.806;12.882;2023-03-02T04:45:19;27.6;;;16.4;;
68872;SDS011;55907;50.806;12.882;2023-03-02T04:48:20;28.4;;;16.4;;
68872;SDS011;55907;50.806;12.882;2023-03-02T04:51:23;26.4;;;16.3;;
68872;SDS011;55907;50.806;12.882;2023-03-02T04:54:24;26.9;;;16.8;;
68872;SDS011;55907;50.806;12.882;2023-03-02T04:57:25;31.1;;;17.1;;
68872;SDS011;55907;50.806;12.882;2023-03-02T05:03:28;27.4;;;17.6;;
68872;SDS011;55907;50.806;12.882;2023-03-02T05:06:30;29.3;;;17.2;;
68872;SDS011;55907;50.806;12.882;2023-03-02T05:09:32;29.6;;;17.2;;
68872;SDS011;55907;50.806;12.882;2023-03-02T05:12:33;29.5;;;17.4;;
68872;SDS011;55907;50.806;12.882;2023-03-02T05:15:36;29.2;;;17.0;;
68872;SDS011;55907;50.806;12.882;2023-03-02T05:18:37;27.5;;;16.0;;
68872;SDS011;55907;50.806;12.882;2023-03-02T05:21:39;27.3;;;16.0;;
68872;SDS011;55907;50.806;12.882;2023-03-02T05:22:56;unavailable;;;unavailable;;
68872;SDS011;55907;50.806;12.882;2023-03-02T05:24:37;unavailable;;;unavailable;;
68872;SDS011;55907;50.806;12.882;2023-03-02T05:24:40;27.2;;;17.0;;
68872;SDS011;55907;50.806;12.882;2023-03-02T05:27:32;unavailable;;;unavailable;;
68872;SDS011;55907;50.806;12.882;2023-03-02T05:27:37;27.2;;;17.0;;
68872;SDS011;55907;50.806;12.882;2023-03-02T05:27:41;28.8;;;16.6;;
68872;SDS011;55907;50.806;12.882;2023-03-02T05:29:53;unavailable;;;unavailable;;
68872;SDS011;55907;50.806;12.882;2023-03-02T05:30:28;28.8;;;16.6;;
68872;SDS011;55907;50.806;12.882;2023-03-02T05:30:43;26.0;;;15.7;;
68872;SDS011;55907;50.806;12.882;2023-03-02T05:32:04;unavailable;;;unavailable;;
68872;SDS011;55907;50.806;12.882;2023-03-02T05:32:09;26.0;;;15.7;;
68872;SDS011;55907;50.806;12.882;2023-03-02T05:33:45;28.7;;;16.8;;
68872;SDS011;55907;50.806;12.882;2023-03-02T05:34:32;unavailable;;;unavailable;;
68872;SDS011;55907;50.806;12.882;2023-03-02T05:34:37;28.7;;;16.8;;
68872;SDS011;55907;50.806;12.882;2023-03-02T05:36:47;27.7;;;17.1;;
68872;SDS011;55907;50.806;12.882;2023-03-02T05:39:48;29.7;;;17.2;;
68872;SDS011;55907;50.806;12.882;2023-03-02T05:42:50;29.3;;;16.9;;
68872;SDS011;55907;50.806;12.882;2023-03-02T05:45:51;30.3;;;17.1;;
68872;SDS011;55907;50.806;12.882;2023-03-02T05:48:53;29.5;;;17.3;;
68872;SDS011;55907;50.806;12.882;2023-03-02T05:51:55;27.6;;;16.4;;
68872;SDS011;55907;50.806;12.882;2023-03-02T05:54:56;26.6;;;15.8;;
68872;SDS011;55907;50.806;12.882;2023-03-02T05:57:58;27.9;;;16.5;;
68872;SDS011;55907;50.806;12.882;2023-03-02T06:01:00;24.9;;;15.9;;
68872;SDS011;55907;50.806;12.882;2023-03-02T06:04:01;26.3;;;15.9;;
68872;SDS011;55907;50.806;12.882;2023-03-02T06:07:03;29.5;;;16.0;;
68872;SDS011;55907;50.806;12.882;2023-03-02T06:10:05;27.2;;;15.9;;
68872;SDS011;55907;50.806;12.882;2023-03-02T06:13:06;27.6;;;16.3;;
68872;SDS011;55907;50.806;12.882;2023-03-02T06:16:08;49.3;;;27.1;;
68872;SDS011;55907;50.806;12.882;2023-03-02T06:19:09;37.0;;;18.6;;
68872;SDS011;55907;50.806;12.882;2023-03-02T06:22:11;31.6;;;18.0;;
68872;SDS011;55907;50.806;12.882;2023-03-02T06:25:14;30.6;;;17.8;;
68872;SDS011;55907;50.806;12.882;2023-03-02T06:28:14;31.7;;;17.4;;
68872;SDS011;55907;50.806;12.882;2023-03-02T06:31:16;32.7;;;18.4;;
68872;SDS011;55907;50.806;12.882;2023-03-02T06:34:18;30.3;;;17.8;;
68872;SDS011;55907;50.806;12.882;2023-03-02T06:37:19;32.2;;;18.1;;
68872;SDS011;55907;50.806;12.882;2023-03-02T06:40:21;28.3;;;17.6;;
68872;SDS011;55907;50.806;12.882;2023-03-02T06:43:22;26.2;;;17.2;;
68872;SDS011;55907;50.806;12.882;2023-03-02T06:46:24;27.6;;;17.4;;
68872;SDS011;55907;50.806;12.882;2023-03-02T06:49:26;28.1;;;17.6;;
68872;SDS011;55907;50.806;12.882;2023-03-02T06:52:27;26.5;;;17.4;;
68872;SDS011;55907;50.806;12.882;2023-03-02T06:55:29;31.2;;;18.7;;
68872;SDS011;55907;50.806;12.882;2023-03-02T06:58:30;29.3;;;19.1;;
68872;SDS011;55907;50.806;12.882;2023-03-02T07:01:32;27.3;;;18.6;;
68872;SDS011;55907;50.806;12.882;2023-03-02T07:04:34;31.4;;;20.6;;
68872;SDS011;55907;50.806;12.882;2023-03-02T07:07:35;32.9;;;22.6;;
68872;SDS011;55907;50.806;12.882;2023-03-02T07:10:37;32.0;;;22.5;;
68872;SDS011;55907;50.806;12.882;2023-03-02T07:13:38;30.6;;;23.1;;
68872;SDS011;55907;50.806;12.882;2023-03-02T07:16:40;32.9;;;23.6;;
68872;SDS011;55907;50.806;12.882;2023-03-02T07:19:42;32.7;;;23.7;;
68872;SDS011;55907;50.806;12.882;2023-03-02T07:22:43;32.9;;;23.1;;
68872;SDS011;55907;50.806;12.882;2023-03-02T07:25:45;36.0;;;23.9;;
68872;SDS011;55907;50.806;12.882;2023-03-02T09:32:49;20.0;;;14.3;;
68872;SDS011;55907;50.806;12.882;2023-03-02T09:35:50;19.4;;;15.0;;
68872;SDS011;55907;50.806;12.882;2023-03-02T09:38:52;18.4;;;14.9;;
68872;SDS011;55907;50.806;12.882;2023-03-02T09:41:56;20.3;;;14.8;;
68872;SDS011;55907;50.806;12.882;2023-03-02T09:44:59;19.0;;;14.6;;
68872;SDS011;55907;50.806;12.882;2023-03-02T09:47:59;21.8;;;14.7;;
68872;SDS011;55907;50.806;12.882;2023-03-02T09:51:00;21.6;;;14.2;;
68872;SDS011;55907;50.806;12.882;2023-03-02T09:54:01;17.6;;;13.7;;
68872;SDS011;55907;50.806;12.882;2023-03-02T10:00:02;18.5;;;13.4;;
68872;SDS011;55907;50.806;12.882;2023-03-02T10:03:03;17.8;;;12.6;;
68872;SDS011;55907;50.806;12.882;2023-03-02T10:06:04;18.3;;;12.5;;
68872;SDS011;55907;50.806;12.882;2023-03-02T10:09:07;16.1;;;11.5;;
68872;SDS011;55907;50.806;12.882;2023-03-02T10:12:11;17.7;;;12.5;;
68872;SDS011;55907;50.806;12.882;2023-03-02T10:15:09;14.2;;;11.8;;
68872;SDS011;55907;50.806;12.882;2023-03-02T10:18:12;16.2;;;11.9;;
68872;SDS011;55907;50.806;12.882;2023-03-02T10:21:12;16.8;;;12.1;;
68872;SDS011;55907;50.806;12.882;2023-03-02T10:24:14;15.9;;;12.0;;
68872;SDS011;55907;50.806;12.882;2023-03-02T10:27:15;15.7;;;12.0;;
68872;SDS011;55907;50.806;12.882;2023-03-02T10:30:15;16.4;;;12.1;;
68872;SDS011;55907;50.806;12.882;2023-03-02T10:33:18;14.9;;;11.9;;
68872;SDS011;55907;50.806;12.882;2023-03-02T10:36:19;18.0;;;12.8;;
68872;SDS011;55907;50.806;12.882;2023-03-02T10:39:19;17.4;;;12.9;;
68872;SDS011;55907;50.806;12.882;2023-03-02T10:42:21;15.3;;;12.3;;
68872;SDS011;55907;50.806;12.882;2023-03-02T10:45:23;18.3;;;12.7;;
68872;SDS011;55907;50.806;12.882;2023-03-02T10:48:23;15.9;;;12.9;;
68872;SDS011;55907;50.806;12.882;2023-03-02T10:51:26;16.2;;;11.7;;
68872;SDS011;55907;50.806;12.882;2023-03-02T10:54:26;14.7;;;11.6;;
68872;SDS011;55907;50.806;12.882;2023-03-02T10:57:28;18.4;;;12.4;;
68872;SDS011;55907;50.806;12.882;2023-03-02T11:00:29;19.3;;;13.0;;
68872;SDS011;55907;50.806;12.882;2023-03-02T11:03:31;16.8;;;13.1;;
68872;SDS011;55907;50.806;12.882;2023-03-02T11:06:31;18.5;;;13.6;;
68872;SDS011;55907;50.806;12.882;2023-03-02T11:09:32;15.7;;;13.1;;
68872;SDS011;55907;50.806;12.882;2023-03-02T11:12:34;19.3;;;13.7;;
68872;SDS011;55907;50.806;12.882;2023-03-02T11:15:38;16.3;;;12.9;;
68872;SDS011;55907;50.806;12.882;2023-03-02T11:18:37;17.7;;;13.3;;
68872;SDS011;55907;50.806;12.882;2023-03-02T11:21:39;20.0;;;14.8;;
68872;SDS011;55907;50.806;12.882;2023-03-02T11:24:40;21.4;;;14.9;;
68872;SDS011;55907;50.806;12.882;2023-03-02T11:27:41;20.5;;;14.7;;
68872;SDS011;55907;50.806;12.882;2023-03-02T11:30:44;24.1;;;16.1;;
68872;SDS011;55907;50.806;12.882;2023-03-02T11:33:47;22.9;;;15.4;;
68872;SDS011;55907;50.806;12.882;2023-03-02T11:36:49;22.2;;;14.8;;
68872;SDS011;55907;50.806;12.882;2023-03-02T11:39:54;22.7;;;14.9;;
68872;SDS011;55907;50.806;12.882;2023-03-02T11:42:48;23.0;;;14.7;;
68872;SDS011;55907;50.806;12.882;2023-03-02T11:45:52;22.0;;;14.1;;
68872;SDS011;55907;50.806;12.882;2023-03-02T11:48:52;23.2;;;14.3;;
68872;SDS011;55907;50.806;12.882;2023-03-02T11:51:53;24.1;;;16.0;;
68872;SDS011;55907;50.806;12.882;2023-03-02T11:54:55;24.5;;;15.6;;
68872;SDS011;55907;50.806;12.882;2023-03-02T11:57:57;26.2;;;16.9;;
68872;SDS011;55907;50.806;12.882;2023-03-02T12:00:57;25.2;;;15.6;;
68872;SDS011;55907;50.806;12.882;2023-03-02T12:04:05;24.8;;;15.5;;
68872;SDS011;55907;50.806;12.882;2023-03-02T12:07:01;22.4;;;15.0;;
68872;SDS011;55907;50.806;12.882;2023-03-02T12:10:03;23.6;;;15.3;;
68872;SDS011;55907;50.806;12.882;2023-03-02T12:13:12;21.6;;;14.9;;
68872;SDS011;55907;50.806;12.882;2023-03-02T12:19:23;24.2;;;15.6;;
68872;SDS011;55907;50.806;12.882;2023-03-02T12:22:08;24.9;;;15.1;;
68872;SDS011;55907;50.806;12.882;2023-03-02T12:31:12;23.5;;;15.0;;
68872;SDS011;55907;50.806;12.882;2023-03-02T12:34:20;24.9;;;16.0;;
68872;SDS011;55907;50.806;12.882;2023-03-02T12:37:15;23.9;;;15.2;;
68872;SDS011;55907;50.806;12.882;2023-03-02T12:43:19;22.6;;;14.3;;
68872;SDS011;55907;50.806;12.882;2023-03-02T12:46:24;25.6;;;14.7;;
68872;SDS011;55907;50.806;12.882;2023-03-02T12:49:26;20.7;;;13.4;;
68872;SDS011;55907;50.806;12.882;2023-03-02T12:52:26;24.6;;;13.9;;
68872;SDS011;55907;50.806;12.882;2023-03-02T12:55:24;22.3;;;13.3;;
68872;SDS011;55907;50.806;12.882;2023-03-02T12:58:26;22.9;;;13.3;;
68872;SDS011;55907;50.806;12.882;2023-03-02T13:01:27;20.4;;;12.8;;
68872;SDS011;55907;50.806;12.882;2023-03-02T13:04:28;23.7;;;13.9;;
68872;SDS011;55907;50.806;12.882;2023-03-02T13:10:32;24.4;;;14.5;;
68872;SDS011;55907;50.806;12.882;2023-03-02T13:13:34;25.1;;;14.5;;
68872;SDS011;55907;50.806;12.882;2023-03-02T13:16:34;24.7;;;15.3;;
68872;SDS011;55907;50.806;12.882;2023-03-02T13:19:36;27.5;;;15.9;;
68872;SDS011;55907;50.806;12.882;2023-03-02T13:22:37;24.2;;;14.4;;
68872;SDS011;55907;50.806;12.882;2023-03-02T13:25:46;23.4;;;14.3;;
68872;SDS011;55907;50.806;12.882;2023-03-02T13:28:40;26.8;;;15.0;;
68872;SDS011;55907;50.806;12.882;2023-03-02T13:31:42;24.3;;;14.3;;
68872;SDS011;55907;50.806;12.882;2023-03-02T13:34:45;23.8;;;14.8;;
68872;SDS011;55907;50.806;12.882;2023-03-02T13:37:45;22.7;;;14.0;;
68872;SDS011;55907;50.806;12.882;2023-03-02T13:39:40;unavailable;;;unavailable;;
68872;SDS011;55907;50.806;12.882;2023-03-02T13:40:47;23.9;;;14.0;;
68872;SDS011;55907;50.806;12.882;2023-03-02T13:43:48;22.2;;;13.9;;
68872;SDS011;55907;50.806;12.882;2023-03-02T13:43:51;unavailable;;;unavailable;;
68872;SDS011;55907;50.806;12.882;2023-03-02T13:43:55;22.2;;;13.9;;
68872;SDS011;55907;50.806;12.882;2023-03-02T13:45:19;unavailable;;;unavailable;;
68872;SDS011;55907;50.806;12.882;2023-03-02T13:46:49;22.0;;;13.3;;
68872;SDS011;55907;50.806;12.882;2023-03-02T13:49:03;unavailable;;;unavailable;;
68872;SDS011;55907;50.806;12.882;2023-03-02T13:49:06;22.0;;;13.3;;
68872;SDS011;55907;50.806;12.882;2023-03-02T13:49:51;23.5;;;14.2;;
68872;SDS011;55907;50.806;12.882;2023-03-02T13:51:31;unavailable;;;unavailable;;
68872;SDS011;55907;50.806;12.882;2023-03-02T13:51:38;23.5;;;14.2;;
68872;SDS011;55907;50.806;12.882;2023-03-02T13:52:41;unavailable;;;unavailable;;
68872;SDS011;55907;50.806;12.882;2023-03-02T13:52:43;23.5;;;14.2;;
68872;SDS011;55907;50.806;12.882;2023-03-02T13:52:53;26.0;;;14.3;;
68872;SDS011;55907;50.806;12.882;2023-03-02T13:55:52;unavailable;;;unavailable;;
68872;SDS011;55907;50.806;12.882;2023-03-02T13:55:54;25.2;;;14.3;;
68872;SDS011;55907;50.806;12.882;2023-03-02T13:58:55;22.0;;;13.5;;
68872;SDS011;55907;50.806;12.882;2023-03-02T14:01:57;22.5;;;13.1;;
68872;SDS011;55907;50.806;12.882;2023-03-02T14:04:58;23.2;;;12.5;;
68872;SDS011;55907;50.806;12.882;2023-03-02T14:08:00;17.8;;;11.7;;
68872;SDS011;55907;50.806;12.882;2023-03-02T14:08:11;unavailable;;;unavailable;;
68872;SDS011;55907;50.806;12.882;2023-03-02T14:08:35;17.8;;;11.7;;
68872;SDS011;55907;50.806;12.882;2023-03-02T14:08:59;unavailable;;;unavailable;;
68872;SDS011;55907;50.806;12.882;2023-03-02T14:09:20;17.8;;;11.7;;
68872;SDS011;55907;50.806;12.882;2023-03-02T14:11:02;19.5;;;12.0;;
68872;SDS011;55907;50.806;12.882;2023-03-02T14:14:03;21.5;;;10.8;;
68872;SDS011;55907;50.806;12.882;2023-03-02T14:17:05;19.3;;;10.6;;
68872;SDS011;55907;50.806;12.882;2023-03-02T14:20:08;17.7;;;9.8;;
68872;SDS011;55907;50.806;12.882;2023-03-02T14:20:28;unavailable;;;unavailable;;
68872;SDS011;55907;50.806;12.882;2023-03-02T14:24:06;unavailable;;;unavailable;;
68872;SDS011;55907;50.806;12.882;2023-03-02T14:26:15;15.0;;;9.1;;
68872;SDS011;55907;50.806;12.882;2023-03-02T14:29:14;14.6;;;8.7;;
68872;SDS011;55907;50.806;12.882;2023-03-02T14:32:13;13.6;;;8.4;;
68872;SDS011;55907;50.806;12.882;2023-03-02T14:35:14;14.5;;;8.3;;
68872;SDS011;55907;50.806;12.882;2023-03-02T14:38:15;13.8;;;7.7;;
68872;SDS011;55907;50.806;12.882;2023-03-02T14:41:17;16.1;;;8.2;;
68872;SDS011;55907;50.806;12.882;2023-03-02T14:44:18;13.0;;;6.8;;
68872;SDS011;55907;50.806;12.882;2023-03-02T14:47:19;13.2;;;7.2;;
68872;SDS011;55907;50.806;12.882;2023-03-02T14:50:21;12.5;;;7.0;;
68872;SDS011;55907;50.806;12.882;2023-03-02T14:56:24;12.1;;;7.1;;
68872;SDS011;55907;50.806;12.882;2023-03-02T14:59:26;13.3;;;7.5;;
68872;SDS011;55907;50.806;12.882;2023-03-02T15:02:27;11.8;;;7.4;;
68872;SDS011;55907;50.806;12.882;2023-03-02T15:05:28;12.1;;;7.8;;
68872;SDS011;55907;50.806;12.882;2023-03-02T15:08:30;12.4;;;8.2;;
68872;SDS011;55907;50.806;12.882;2023-03-02T15:11:32;12.7;;;8.2;;
68872;SDS011;55907;50.806;12.882;2023-03-02T15:14:33;13.9;;;9.5;;
68872;SDS011;55907;50.806;12.882;2023-03-02T15:20:36;13.4;;;9.1;;
68872;SDS011;55907;50.806;12.882;2023-03-02T15:23:38;13.9;;;8.4;;
68872;SDS011;55907;50.806;12.882;2023-03-02T15:26:39;14.0;;;9.4;;
68872;SDS011;55907;50.806;12.882;2023-03-02T15:29:41;13.2;;;10.1;;
68872;SDS011;55907;50.806;12.882;2023-03-02T15:32:42;12.1;;;9.3;;
68872;SDS011;55907;50.806;12.882;2023-03-02T15:35:44;12.9;;;10.5;;
68872;SDS011;55907;50.806;12.882;2023-03-02T15:38:47;14.2;;;10.9;;
68872;SDS011;55907;50.806;12.882;2023-03-02T15:41:47;13.5;;;10.8;;
68872;SDS011;55907;50.806;12.882;2023-03-02T15:44:48;13.9;;;11.9;;
68872;SDS011;55907;50.806;12.882;2023-03-02T15:47:50;14.4;;;11.2;;
68872;SDS011;55907;50.806;12.882;2023-03-02T15:50:55;14.9;;;11.5;;
68872;SDS011;55907;50.806;12.882;2023-03-02T15:53:53;13.9;;;11.5;;
68872;SDS011;55907;50.806;12.882;2023-03-02T15:56:55;15.4;;;13.0;;
68872;SDS011;55907;50.806;12.882;2023-03-02T15:59:56;18.1;;;12.8;;
68872;SDS011;55907;50.806;12.882;2023-03-02T16:02:58;16.1;;;12.1;;
68872;SDS011;55907;50.806;12.882;2023-03-02T16:05:59;15.0;;;12.5;;
68872;SDS011;55907;50.806;12.882;2023-03-02T16:09:01;15.8;;;12.2;;
68872;SDS011;55907;50.806;12.882;2023-03-02T16:12:02;15.0;;;11.7;;
68872;SDS011;55907;50.806;12.882;2023-03-02T16:15:04;15.9;;;12.8;;
68872;SDS011;55907;50.806;12.882;2023-03-02T16:18:06;18.3;;;12.9;;
68872;SDS011;55907;50.806;12.882;2023-03-02T16:21:10;17.1;;;13.0;;
68872;SDS011;55907;50.806;12.882;2023-03-02T16:24:08;18.1;;;13.4;;
68872;SDS011;55907;50.806;12.882;2023-03-02T16:27:10;18.8;;;14.7;;
68872;SDS011;55907;50.806;12.882;2023-03-02T16:30:12;17.9;;;13.1;;
68872;SDS011;55907;50.806;12.882;2023-03-02T16:33:14;18.3;;;13.8;;
68872;SDS011;55907;50.806;12.882;2023-03-02T16:35:09;unavailable;;;unavailable;;
68872;SDS011;55907;50.806;12.882;2023-03-02T16:35:16;18.3;;;13.8;;
68872;SDS011;55907;50.806;12.882;2023-03-02T16:36:15;18.7;;;13.8;;
68872;SDS011;55907;50.806;12.882;2023-03-02T16:38:52;unavailable;;;unavailable;;
68872;SDS011;55907;50.806;12.882;2023-03-02T16:42:53;19.9;;;14.7;;
68872;SDS011;55907;50.806;12.882;2023-03-02T16:45:09;unavailable;;;unavailable;;
68872;SDS011;55907;50.806;12.882;2023-03-02T16:45:13;19.9;;;14.7;;
68872;SDS011;55907;50.806;12.882;2023-03-02T16:45:20;19.8;;;14.9;;
68872;SDS011;55907;50.806;12.882;2023-03-02T16:48:21;35.0;;;24.9;;
68872;SDS011;55907;50.806;12.882;2023-03-02T16:48:45;unavailable;;;unavailable;;
68872;SDS011;55907;50.806;12.882;2023-03-02T16:48:54;35.0;;;24.9;;
68872;SDS011;55907;50.806;12.882;2023-03-02T16:51:23;27.1;;;16.9;;
68872;SDS011;55907;50.806;12.882;2023-03-02T16:52:25;unavailable;;;unavailable;;
68872;SDS011;55907;50.806;12.882;2023-03-02T16:52:30;27.1;;;16.9;;
68872;SDS011;55907;50.806;12.882;2023-03-02T16:53:50;unavailable;;;unavailable;;
68872;SDS011;55907;50.806;12.882;2023-03-02T16:54:24;21.1;;;15.1;;
68872;SDS011;55907;50.806;12.882;2023-03-02T16:57:25;18.7;;;15.4;;
68872;SDS011;55907;50.806;12.882;2023-03-02T17:00:27;20.4;;;15.5;;
68872;SDS011;55907;50.806;12.882;2023-03-02T17:03:28;22.3;;;15.4;;
68872;SDS011;55907;50.806;12.882;2023-03-02T17:06:30;19.8;;;15.4;;
68872;SDS011;55907;50.806;12.882;2023-03-02T17:09:36;21.2;;;15.6;;
68872;SDS011;55907;50.806;12.882;2023-03-02T17:12:33;21.6;;;15.6;;
68872;SDS011;55907;50.806;12.882;2023-03-02T17:18:36;23.5;;;16.6;;
68872;SDS011;55907;50.806;12.882;2023-03-02T17:21:38;24.2;;;16.2;;
68872;SDS011;55907;50.806;12.882;2023-03-02T17:24:39;24.3;;;17.3;;
68872;SDS011;55907;50.806;12.882;2023-03-02T17:27:41;22.2;;;16.9;;
68872;SDS011;55907;50.806;12.882;2023-03-02T17:30:43;24.6;;;16.5;;
68872;SDS011;55907;50.806;12.882;2023-03-02T17:33:44;23.3;;;17.2;;
68872;SDS011;55907;50.806;12.882;2023-03-02T17:36:45;24.6;;;16.4;;
68872;SDS011;55907;50.806;12.882;2023-03-02T17:39:47;24.1;;;16.7;;
68872;SDS011;55907;50.806;12.882;2023-03-02T17:42:49;23.0;;;16.2;;
68872;SDS011;55907;50.806;12.882;2023-03-02T17:45:50;22.3;;;17.0;;
68872;SDS011;55907;50.806;12.882;2023-03-02T17:48:52;24.7;;;16.5;;
68872;SDS011;55907;50.806;12.882;2023-03-02T17:51:53;21.6;;;16.3;;
68872;SDS011;55907;50.806;12.882;2023-03-02T17:54:54;24.2;;;16.9;;
68872;SDS011;55907;50.806;12.882;2023-03-02T17:57:56;23.1;;;16.7;;
68872;SDS011;55907;50.806;12.882;2023-03-02T18:00:58;24.2;;;17.1;;
68872;SDS011;55907;50.806;12.882;2023-03-02T18:03:59;26.3;;;18.2;;
68872;SDS011;55907;50.806;12.882;2023-03-02T18:07:01;24.7;;;17.8;;